sensor_id;sensor_type;location;lat;lon;timestamp;P1;durP1;ratioP1;P2;durP2;ratioP2
6015;SDS011;3036;49.960;8.454;2023-07-29T00:00:41;5.78;;;5.20;;
6015;SDS011;3036;49.960;8.454;2023-07-29T00:03:08;5.30;;;4.90;;
6015;SDS011;3036;49.960;8.454;2023-07-29T00:05:36;4.47;;;4.18;;
6015;SDS011;3036;49.960;8.454;2023-07-29T00:08:03;5.32;;;4.40;;
6015;SDS011;3036;49.960;8.454;2023-07-29T00:10:32;5.05;;;4.60;;
6015;SDS011;3036;49.960;8.454;2023-07-29T00:12:59;5.75;;;4.88;;
6015;SDS011;3036;49.960;8.454;2023-07-29T00:15:26;5.65;;;5.13;;
6015;SDS011;3036;49.960;8.454;2023-07-29T00:17:53;5.72;;;5.30;;
6015;SDS011;3036;49.960;8.454;2023-07-29T00:20:20;5.82;;;5.30;;
6015;SDS011;3036;49.960;8.454;2023-07-29T00:22:47;5.88;;;5.47;;
6015;SDS011;3036;49.960;8.454;2023-07-29T00:25:18;5.53;;;5.05;;
6015;SDS011;3036;49.960;8.454;2023-07-29T00:27:46;6.07;;;5.47;;
6015;SDS011;3036;49.960;8.454;2023-07-29T00:30:13;5.50;;;5.10;;
6015;SDS011;3036;49.960;8.454;2023-07-29T00:32:40;5.35;;;5.00;;
6015;SDS011;3036;49.960;8.454;2023-07-29T00:35:07;5.63;;;5.22;;
6015;SDS011;3036;49.960;8.454;2023-07-29T00:37:35;5.97;;;5.47;;
6015;SDS011;3036;49.960;8.454;2023-07-29T00:40:03;5.68;;;5.28;;
6015;SDS011;3036;49.960;8.454;2023-07-29T00:42:30;5.85;;;5.30;;
6015;SDS011;3036;49.960;8.454;2023-07-29T00:44:58;6.50;;;5.50;;
6015;SDS011;3036;49.960;8.454;2023-07-29T00:47:25;7.00;;;4.57;;
6015;SDS011;3036;49.960;8.454;2023-07-29T00:49:52;5.15;;;4.65;;
6015;SDS011;3036;49.960;8.454;2023-07-29T00:52:19;5.10;;;4.72;;
6015;SDS011;3036;49.960;8.454;2023-07-29T00:54:46;4.60;;;4.20;;
6015;SDS011;3036;49.960;8.454;2023-07-29T00:57:13;4.65;;;4.35;;
6015;SDS011;3036;49.960;8.454;2023-07-29T00:59:42;4.63;;;4.15;;
6015;SDS011;3036;49.960;8.454;2023-07-29T01:02:10;7.10;;;4.60;;
6015;SDS011;3036;49.960;8.454;2023-07-29T01:04:37;4.60;;;4.15;;
6015;SDS011;3036;49.960;8.454;2023-07-29T01:07:07;4.35;;;4.05;;
6015;SDS011;3036;49.960;8.454;2023-07-29T01:09:41;4.72;;;3.65;;
6015;SDS011;3036;49.960;8.454;2023-07-29T01:12:11;3.90;;;3.65;;
6015;SDS011;3036;49.960;8.454;2023-07-29T01:14:41;4.35;;;3.78;;
6015;SDS011;3036;49.960;8.454;2023-07-29T01:17:13;4.20;;;3.83;;
6015;SDS011;3036;49.960;8.454;2023-07-29T01:19:42;4.22;;;4.03;;
6015;SDS011;3036;49.960;8.454;2023-07-29T01:22:10;6.78;;;3.60;;
6015;SDS011;3036;49.960;8.454;2023-07-29T01:24:39;3.30;;;2.80;;
6015;SDS011;3036;49.960;8.454;2023-07-29T01:27:06;3.20;;;2.97;;
6015;SDS011;3036;49.960;8.454;2023-07-29T01:29:33;3.85;;;3.22;;
6015;SDS011;3036;49.960;8.454;2023-07-29T01:32:01;3.05;;;2.95;;
6015;SDS011;3036;49.960;8.454;2023-07-29T01:34:32;3.42;;;3.13;;
6015;SDS011;3036;49.960;8.454;2023-07-29T01:37:02;3.17;;;2.60;;
6015;SDS011;3036;49.960;8.454;2023-07-29T01:39:31;8.57;;;2.53;;
6015;SDS011;3036;49.960;8.454;2023-07-29T01:42:01;2.42;;;2.35;;
6015;SDS011;3036;49.960;8.454;2023-07-29T01:44:28;3.30;;;2.72;;
6015;SDS011;3036;49.960;8.454;2023-07-29T01:46:55;2.60;;;2.47;;
6015;SDS011;3036;49.960;8.454;2023-07-29T01:49:22;2.17;;;2.08;;
6015;SDS011;3036;49.960;8.454;2023-07-29T01:51:49;2.17;;;2.08;;
6015;SDS011;3036;49.960;8.454;2023-07-29T01:54:16;2.63;;;2.38;;
6015;SDS011;3036;49.960;8.454;2023-07-29T01:56:43;2.50;;;2.30;;
6015;SDS011;3036;49.960;8.454;2023-07-29T01:59:12;2.33;;;2.10;;
6015;SDS011;3036;49.960;8.454;2023-07-29T02:01:41;3.83;;;1.75;;
6015;SDS011;3036;49.960;8.454;2023-07-29T02:04:08;1.50;;;1.50;;
6015;SDS011;3036;49.960;8.454;2023-07-29T02:06:35;2.25;;;2.15;;
6015;SDS011;3036;49.960;8.454;2023-07-29T02:09:02;2.17;;;2.08;;
6015;SDS011;3036;49.960;8.454;2023-07-29T02:11:30;2.10;;;2.10;;
6015;SDS011;3036;49.960;8.454;2023-07-29T02:13:57;2.75;;;2.25;;
6015;SDS011;3036;49.960;8.454;2023-07-29T02:16:25;1.90;;;1.90;;
6015;SDS011;3036;49.960;8.454;2023-07-29T02:18:52;2.25;;;2.20;;
6015;SDS011;3036;49.960;8.454;2023-07-29T02:21:19;2.65;;;2.45;;
6015;SDS011;3036;49.960;8.454;2023-07-29T02:23:46;1.92;;;1.83;;
6015;SDS011;3036;49.960;8.454;2023-07-29T02:26:13;3.53;;;2.20;;
6015;SDS011;3036;49.960;8.454;2023-07-29T02:28:41;2.50;;;2.30;;
6015;SDS011;3036;49.960;8.454;2023-07-29T02:31:13;1.77;;;1.67;;
6015;SDS011;3036;49.960;8.454;2023-07-29T02:33:42;2.50;;;2.30;;
6015;SDS011;3036;49.960;8.454;2023-07-29T02:36:10;2.33;;;2.33;;
6015;SDS011;3036;49.960;8.454;2023-07-29T02:38:38;2.85;;;2.65;;
6015;SDS011;3036;49.960;8.454;2023-07-29T02:41:05;5.90;;;3.08;;
6015;SDS011;3036;49.960;8.454;2023-07-29T02:43:33;6.70;;;3.03;;
6015;SDS011;3036;49.960;8.454;2023-07-29T02:46:01;2.45;;;2.25;;
6015;SDS011;3036;49.960;8.454;2023-07-29T02:48:28;2.50;;;2.40;;
6015;SDS011;3036;49.960;8.454;2023-07-29T02:50:56;6.55;;;3.28;;
6015;SDS011;3036;49.960;8.454;2023-07-29T02:53:24;2.80;;;2.60;;
6015;SDS011;3036;49.960;8.454;2023-07-29T02:55:51;4.05;;;3.85;;
6015;SDS011;3036;49.960;8.454;2023-07-29T02:58:19;3.95;;;3.65;;
6015;SDS011;3036;49.960;8.454;2023-07-29T03:00:46;3.10;;;3.00;;
6015;SDS011;3036;49.960;8.454;2023-07-29T03:03:13;3.60;;;3.40;;
6015;SDS011;3036;49.960;8.454;2023-07-29T03:05:41;4.68;;;4.28;;
6015;SDS011;3036;49.960;8.454;2023-07-29T03:08:09;4.97;;;4.68;;
6015;SDS011;3036;49.960;8.454;2023-07-29T03:10:38;4.50;;;4.20;;
6015;SDS011;3036;49.960;8.454;2023-07-29T03:13:05;4.90;;;4.60;;
6015;SDS011;3036;49.960;8.454;2023-07-29T03:15:32;4.30;;;4.03;;
6015;SDS011;3036;49.960;8.454;2023-07-29T03:18:18;5.53;;;4.93;;
6015;SDS011;3036;49.960;8.454;2023-07-29T03:20:45;4.93;;;4.63;;
6015;SDS011;3036;49.960;8.454;2023-07-29T03:23:13;4.75;;;4.45;;
6015;SDS011;3036;49.960;8.454;2023-07-29T03:25:41;5.25;;;4.28;;
6015;SDS011;3036;49.960;8.454;2023-07-29T03:28:10;5.05;;;3.83;;
6015;SDS011;3036;49.960;8.454;2023-07-29T03:30:37;4.55;;;4.25;;
6015;SDS011;3036;49.960;8.454;2023-07-29T03:33:04;4.45;;;4.05;;
6015;SDS011;3036;49.960;8.454;2023-07-29T03:35:31;4.10;;;3.80;;
6015;SDS011;3036;49.960;8.454;2023-07-29T03:37:58;4.18;;;3.88;;
6015;SDS011;3036;49.960;8.454;2023-07-29T03:40:26;3.38;;;3.28;;
6015;SDS011;3036;49.960;8.454;2023-07-29T03:42:52;5.03;;;3.60;;
6015;SDS011;3036;49.960;8.454;2023-07-29T03:45:19;3.63;;;3.40;;
6015;SDS011;3036;49.960;8.454;2023-07-29T03:47:46;3.97;;;3.50;;
6015;SDS011;3036;49.960;8.454;2023-07-29T03:50:13;4.18;;;3.65;;
6015;SDS011;3036;49.960;8.454;2023-07-29T03:52:40;3.42;;;3.28;;
6015;SDS011;3036;49.960;8.454;2023-07-29T03:55:07;4.00;;;3.55;;
6015;SDS011;3036;49.960;8.454;2023-07-29T03:57:36;3.65;;;3.45;;
6015;SDS011;3036;49.960;8.454;2023-07-29T04:00:03;4.95;;;3.40;;
6015;SDS011;3036;49.960;8.454;2023-07-29T04:02:30;3.90;;;3.53;;
6015;SDS011;3036;49.960;8.454;2023-07-29T04:04:57;3.40;;;3.10;;
6015;SDS011;3036;49.960;8.454;2023-07-29T04:07:25;4.45;;;3.42;;
6015;SDS011;3036;49.960;8.454;2023-07-29T04:09:52;3.45;;;3.25;;
6015;SDS011;3036;49.960;8.454;2023-07-29T04:12:19;3.40;;;3.20;;
6015;SDS011;3036;49.960;8.454;2023-07-29T04:14:47;3.13;;;2.92;;
6015;SDS011;3036;49.960;8.454;2023-07-29T04:17:15;2.97;;;2.78;;
6015;SDS011;3036;49.960;8.454;2023-07-29T04:19:42;2.80;;;2.70;;
6015;SDS011;3036;49.960;8.454;2023-07-29T04:22:09;3.20;;;3.00;;
6015;SDS011;3036;49.960;8.454;2023-07-29T04:24:36;2.83;;;2.60;;
6015;SDS011;3036;49.960;8.454;2023-07-29T04:27:03;2.58;;;2.47;;
6015;SDS011;3036;49.960;8.454;2023-07-29T04:29:30;2.40;;;2.30;;
6015;SDS011;3036;49.960;8.454;2023-07-29T04:31:58;2.72;;;2.47;;
6015;SDS011;3036;49.960;8.454;2023-07-29T04:34:26;5.78;;;3.90;;
6015;SDS011;3036;49.960;8.454;2023-07-29T04:36:53;2.78;;;2.55;;
6015;SDS011;3036;49.960;8.454;2023-07-29T04:39:20;2.30;;;2.20;;
6015;SDS011;3036;49.960;8.454;2023-07-29T04:41:47;2.47;;;2.03;;
6015;SDS011;3036;49.960;8.454;2023-07-29T04:44:14;2.40;;;2.30;;
6015;SDS011;3036;49.960;8.454;2023-07-29T04:46:41;2.10;;;2.03;;
6015;SDS011;3036;49.960;8.454;2023-07-29T04:49:10;2.33;;;2.22;;
6015;SDS011;3036;49.960;8.454;2023-07-29T04:51:37;2.92;;;2.33;;
6015;SDS011;3036;49.960;8.454;2023-07-29T04:54:04;2.80;;;2.30;;
6015;SDS011;3036;49.960;8.454;2023-07-29T04:56:31;4.18;;;2.50;;
6015;SDS011;3036;49.960;8.454;2023-07-29T04:58:58;2.40;;;2.20;;
6015;SDS011;3036;49.960;8.454;2023-07-29T05:01:25;2.78;;;2.67;;
6015;SDS011;3036;49.960;8.454;2023-07-29T05:03:52;2.60;;;2.40;;
6015;SDS011;3036;49.960;8.454;2023-07-29T05:06:20;4.68;;;2.63;;
6015;SDS011;3036;49.960;8.454;2023-07-29T05:08:48;4.22;;;2.55;;
6015;SDS011;3036;49.960;8.454;2023-07-29T05:11:15;2.65;;;2.55;;
6015;SDS011;3036;49.960;8.454;2023-07-29T05:13:42;2.72;;;2.63;;
6015;SDS011;3036;49.960;8.454;2023-07-29T05:16:09;2.58;;;2.38;;
6015;SDS011;3036;49.960;8.454;2023-07-29T05:18:36;3.15;;;2.60;;
6015;SDS011;3036;49.960;8.454;2023-07-29T05:21:03;2.80;;;2.60;;
6015;SDS011;3036;49.960;8.454;2023-07-29T05:23:31;2.60;;;2.42;;
6015;SDS011;3036;49.960;8.454;2023-07-29T05:25:58;3.33;;;2.42;;
6015;SDS011;3036;49.960;8.454;2023-07-29T05:28:25;4.40;;;2.33;;
6015;SDS011;3036;49.960;8.454;2023-07-29T05:30:52;2.65;;;2.47;;
6015;SDS011;3036;49.960;8.454;2023-07-29T05:33:19;3.55;;;2.45;;
6015;SDS011;3036;49.960;8.454;2023-07-29T05:35:46;2.55;;;2.45;;
6015;SDS011;3036;49.960;8.454;2023-07-29T05:38:13;2.50;;;2.40;;
6015;SDS011;3036;49.960;8.454;2023-07-29T05:40:42;2.67;;;2.58;;
6015;SDS011;3036;49.960;8.454;2023-07-29T05:43:09;3.13;;;2.22;;
6015;SDS011;3036;49.960;8.454;2023-07-29T05:45:36;2.90;;;2.75;;
6015;SDS011;3036;49.960;8.454;2023-07-29T05:48:03;2.60;;;2.47;;
6015;SDS011;3036;49.960;8.454;2023-07-29T05:50:30;4.15;;;1.92;;
6015;SDS011;3036;49.960;8.454;2023-07-29T05:52:57;2.22;;;2.05;;
6015;SDS011;3036;49.960;8.454;2023-07-29T05:55:24;3.53;;;2.20;;
6015;SDS011;3036;49.960;8.454;2023-07-29T05:57:53;2.58;;;2.40;;
6015;SDS011;3036;49.960;8.454;2023-07-29T06:00:20;2.05;;;2.05;;
6015;SDS011;3036;49.960;8.454;2023-07-29T06:02:47;2.15;;;1.95;;
6015;SDS011;3036;49.960;8.454;2023-07-29T06:05:14;2.28;;;2.00;;
6015;SDS011;3036;49.960;8.454;2023-07-29T06:07:41;2.00;;;1.90;;
6015;SDS011;3036;49.960;8.454;2023-07-29T06:10:09;1.98;;;1.88;;
6015;SDS011;3036;49.960;8.454;2023-07-29T06:12:37;2.10;;;2.10;;
6015;SDS011;3036;49.960;8.454;2023-07-29T06:15:06;1.92;;;1.92;;
6015;SDS011;3036;49.960;8.454;2023-07-29T06:17:33;2.30;;;2.20;;
6015;SDS011;3036;49.960;8.454;2023-07-29T06:20:00;2.80;;;1.80;;
6015;SDS011;3036;49.960;8.454;2023-07-29T06:22:28;1.60;;;1.55;;
6015;SDS011;3036;49.960;8.454;2023-07-29T06:24:55;1.85;;;1.75;;
6015;SDS011;3036;49.960;8.454;2023-07-29T06:27:22;1.98;;;1.92;;
6015;SDS011;3036;49.960;8.454;2023-07-29T06:29:50;2.20;;;2.10;;
6015;SDS011;3036;49.960;8.454;2023-07-29T06:32:18;2.33;;;2.13;;
6015;SDS011;3036;49.960;8.454;2023-07-29T06:34:45;2.00;;;1.80;;
6015;SDS011;3036;49.960;8.454;2023-07-29T06:37:12;3.90;;;1.92;;
6015;SDS011;3036;49.960;8.454;2023-07-29T06:39:39;2.17;;;2.00;;
6015;SDS011;3036;49.960;8.454;2023-07-29T06:42:06;1.85;;;1.75;;
6015;SDS011;3036;49.960;8.454;2023-07-29T06:44:34;3.90;;;2.60;;
6015;SDS011;3036;49.960;8.454;2023-07-29T06:47:01;1.90;;;1.90;;
6015;SDS011;3036;49.960;8.454;2023-07-29T06:49:29;2.00;;;1.90;;
6015;SDS011;3036;49.960;8.454;2023-07-29T06:51:56;2.22;;;2.22;;
6015;SDS011;3036;49.960;8.454;2023-07-29T06:54:24;1.63;;;1.63;;
6015;SDS011;3036;49.960;8.454;2023-07-29T06:56:51;1.90;;;1.80;;
6015;SDS011;3036;49.960;8.454;2023-07-29T06:59:18;2.30;;;2.10;;
6015;SDS011;3036;49.960;8.454;2023-07-29T07:01:45;2.45;;;2.25;;
6015;SDS011;3036;49.960;8.454;2023-07-29T07:04:12;2.63;;;2.42;;
6015;SDS011;3036;49.960;8.454;2023-07-29T07:06:41;2.13;;;2.03;;
6015;SDS011;3036;49.960;8.454;2023-07-29T07:09:08;2.50;;;2.40;;
6015;SDS011;3036;49.960;8.454;2023-07-29T07:11:35;2.78;;;2.60;;
6015;SDS011;3036;49.960;8.454;2023-07-29T07:14:02;2.53;;;2.33;;
6015;SDS011;3036;49.960;8.454;2023-07-29T07:16:29;2.67;;;2.53;;
6015;SDS011;3036;49.960;8.454;2023-07-29T07:18:56;2.35;;;2.10;;
6015;SDS011;3036;49.960;8.454;2023-07-29T07:21:23;1.85;;;1.85;;
6015;SDS011;3036;49.960;8.454;2023-07-29T07:23:52;2.90;;;2.25;;
6015;SDS011;3036;49.960;8.454;2023-07-29T07:26:19;2.10;;;2.00;;
6015;SDS011;3036;49.960;8.454;2023-07-29T07:28:46;2.47;;;2.38;;
6015;SDS011;3036;49.960;8.454;2023-07-29T07:31:13;2.95;;;2.75;;
6015;SDS011;3036;49.960;8.454;2023-07-29T07:33:41;2.70;;;2.60;;
6015;SDS011;3036;49.960;8.454;2023-07-29T07:36:08;2.30;;;2.20;;
6015;SDS011;3036;49.960;8.454;2023-07-29T07:38:35;2.88;;;2.60;;
6015;SDS011;3036;49.960;8.454;2023-07-29T07:41:03;2.42;;;2.30;;
6015;SDS011;3036;49.960;8.454;2023-07-29T07:43:30;2.70;;;2.60;;
6015;SDS011;3036;49.960;8.454;2023-07-29T07:45:57;2.28;;;2.25;;
6015;SDS011;3036;49.960;8.454;2023-07-29T07:48:25;5.07;;;2.30;;
6015;SDS011;3036;49.960;8.454;2023-07-29T07:50:52;2.10;;;2.00;;
6015;SDS011;3036;49.960;8.454;2023-07-29T07:53:19;2.20;;;2.10;;
6015;SDS011;3036;49.960;8.454;2023-07-29T07:55:46;2.15;;;2.05;;
6015;SDS011;3036;49.960;8.454;2023-07-29T07:58:14;1.92;;;1.90;;
6015;SDS011;3036;49.960;8.454;2023-07-29T08:00:41;2.00;;;2.00;;
6015;SDS011;3036;49.960;8.454;2023-07-29T08:03:08;1.70;;;1.70;;
6015;SDS011;3036;49.960;8.454;2023-07-29T08:05:35;2.10;;;2.08;;
6015;SDS011;3036;49.960;8.454;2023-07-29T08:08:03;1.92;;;1.80;;
6015;SDS011;3036;49.960;8.454;2023-07-29T08:10:30;3.28;;;1.88;;
6015;SDS011;3036;49.960;8.454;2023-07-29T08:12:57;1.50;;;1.45;;
6015;SDS011;3036;49.960;8.454;2023-07-29T08:15:25;1.00;;;1.00;;
6015;SDS011;3036;49.960;8.454;2023-07-29T08:17:52;1.10;;;1.10;;
6015;SDS011;3036;49.960;8.454;2023-07-29T08:20:19;0.70;;;0.70;;
6015;SDS011;3036;49.960;8.454;2023-07-29T08:22:46;0.82;;;0.80;;
6015;SDS011;3036;49.960;8.454;2023-07-29T08:25:13;2.05;;;0.55;;
6015;SDS011;3036;49.960;8.454;2023-07-29T08:27:40;1.15;;;0.43;;
6015;SDS011;3036;49.960;8.454;2023-07-29T08:30:08;0.40;;;0.40;;
6015;SDS011;3036;49.960;8.454;2023-07-29T08:32:36;0.40;;;0.40;;
6015;SDS011;3036;49.960;8.454;2023-07-29T08:35:04;0.50;;;0.50;;
6015;SDS011;3036;49.960;8.454;2023-07-29T08:37:31;1.05;;;0.50;;
6015;SDS011;3036;49.960;8.454;2023-07-29T08:39:58;0.50;;;0.50;;
6015;SDS011;3036;49.960;8.454;2023-07-29T08:42:26;0.40;;;0.40;;
6015;SDS011;3036;49.960;8.454;2023-07-29T08:44:55;0.40;;;0.40;;
6015;SDS011;3036;49.960;8.454;2023-07-29T08:47:22;1.67;;;0.52;;
6015;SDS011;3036;49.960;8.454;2023-07-29T08:49:51;0.50;;;0.50;;
6015;SDS011;3036;49.960;8.454;2023-07-29T08:52:19;0.40;;;0.40;;
6015;SDS011;3036;49.960;8.454;2023-07-29T08:54:46;0.50;;;0.50;;
6015;SDS011;3036;49.960;8.454;2023-07-29T08:57:14;0.47;;;0.47;;
6015;SDS011;3036;49.960;8.454;2023-07-29T08:59:41;0.40;;;0.40;;
6015;SDS011;3036;49.960;8.454;2023-07-29T09:02:08;0.30;;;0.30;;
6015;SDS011;3036;49.960;8.454;2023-07-29T09:04:35;1.17;;;0.40;;
6015;SDS011;3036;49.960;8.454;2023-07-29T09:07:04;0.68;;;0.68;;
6015;SDS011;3036;49.960;8.454;2023-07-29T09:09:32;0.40;;;0.40;;
6015;SDS011;3036;49.960;8.454;2023-07-29T09:11:59;0.50;;;0.50;;
6015;SDS011;3036;49.960;8.454;2023-07-29T09:14:26;0.40;;;0.40;;
6015;SDS011;3036;49.960;8.454;2023-07-29T09:16:53;0.40;;;0.40;;
6015;SDS011;3036;49.960;8.454;2023-07-29T09:19:20;0.57;;;0.57;;
6015;SDS011;3036;49.960;8.454;2023-07-29T09:21:48;0.60;;;0.60;;
6015;SDS011;3036;49.960;8.454;2023-07-29T09:24:17;0.50;;;0.50;;
6015;SDS011;3036;49.960;8.454;2023-07-29T09:26:48;6.47;;;0.60;;
6015;SDS011;3036;49.960;8.454;2023-07-29T09:29:15;1.10;;;0.40;;
6015;SDS011;3036;49.960;8.454;2023-07-29T09:31:42;1.38;;;0.80;;
6015;SDS011;3036;49.960;8.454;2023-07-29T09:34:09;4.40;;;0.43;;
6015;SDS011;3036;49.960;8.454;2023-07-29T09:36:43;1.85;;;0.50;;
6015;SDS011;3036;49.960;8.454;2023-07-29T09:39:10;0.70;;;0.70;;
6015;SDS011;3036;49.960;8.454;2023-07-29T09:41:39;2.83;;;0.50;;
6015;SDS011;3036;49.960;8.454;2023-07-29T09:44:06;0.60;;;0.60;;
6015;SDS011;3036;49.960;8.454;2023-07-29T09:46:34;0.55;;;0.55;;
6015;SDS011;3036;49.960;8.454;2023-07-29T09:49:02;3.00;;;0.68;;
6015;SDS011;3036;49.960;8.454;2023-07-29T09:51:29;1.10;;;0.47;;
6015;SDS011;3036;49.960;8.454;2023-07-29T09:53:56;0.60;;;0.60;;
6015;SDS011;3036;49.960;8.454;2023-07-29T09:56:25;0.65;;;0.63;;
6015;SDS011;3036;49.960;8.454;2023-07-29T09:58:53;0.50;;;0.50;;
6015;SDS011;3036;49.960;8.454;2023-07-29T10:01:22;0.80;;;0.80;;
6015;SDS011;3036;49.960;8.454;2023-07-29T10:03:49;0.50;;;0.50;;
6015;SDS011;3036;49.960;8.454;2023-07-29T10:06:16;0.60;;;0.60;;
6015;SDS011;3036;49.960;8.454;2023-07-29T10:08:47;0.55;;;0.55;;
6015;SDS011;3036;49.960;8.454;2023-07-29T10:11:14;3.15;;;0.55;;
6015;SDS011;3036;49.960;8.454;2023-07-29T10:13:45;0.60;;;0.60;;
6015;SDS011;3036;49.960;8.454;2023-07-29T10:16:14;0.50;;;0.50;;
6015;SDS011;3036;49.960;8.454;2023-07-29T10:18:41;0.40;;;0.40;;
6015;SDS011;3036;49.960;8.454;2023-07-29T10:21:10;0.55;;;0.55;;
6015;SDS011;3036;49.960;8.454;2023-07-29T10:23:38;0.70;;;0.70;;
6015;SDS011;3036;49.960;8.454;2023-07-29T10:26:10;0.80;;;0.80;;
6015;SDS011;3036;49.960;8.454;2023-07-29T10:28:40;0.50;;;0.50;;
6015;SDS011;3036;49.960;8.454;2023-07-29T10:31:10;0.57;;;0.57;;
6015;SDS011;3036;49.960;8.454;2023-07-29T10:33:39;0.60;;;0.60;;
6015;SDS011;3036;49.960;8.454;2023-07-29T10:36:06;0.60;;;0.60;;
6015;SDS011;3036;49.960;8.454;2023-07-29T10:38:33;0.60;;;0.60;;
6015;SDS011;3036;49.960;8.454;2023-07-29T10:41:01;2.78;;;0.52;;
6015;SDS011;3036;49.960;8.454;2023-07-29T10:43:31;0.80;;;0.80;;
6015;SDS011;3036;49.960;8.454;2023-07-29T10:46:15;0.60;;;0.60;;
6015;SDS011;3036;49.960;8.454;2023-07-29T10:48:44;1.17;;;0.50;;
6015;SDS011;3036;49.960;8.454;2023-07-29T10:51:21;0.50;;;0.50;;
6015;SDS011;3036;49.960;8.454;2023-07-29T10:53:51;0.77;;;0.77;;
6015;SDS011;3036;49.960;8.454;2023-07-29T10:56:24;0.60;;;0.60;;
6015;SDS011;3036;49.960;8.454;2023-07-29T10:58:54;0.50;;;0.50;;
6015;SDS011;3036;49.960;8.454;2023-07-29T11:01:26;0.60;;;0.60;;
6015;SDS011;3036;49.960;8.454;2023-07-29T11:12:05;3.10;;;0.68;;
6015;SDS011;3036;49.960;8.454;2023-07-29T11:14:32;0.70;;;0.70;;
6015;SDS011;3036;49.960;8.454;2023-07-29T11:16:59;0.60;;;0.60;;
6015;SDS011;3036;49.960;8.454;2023-07-29T11:19:27;0.80;;;0.80;;
6015;SDS011;3036;49.960;8.454;2023-07-29T11:21:54;0.90;;;0.90;;
6015;SDS011;3036;49.960;8.454;2023-07-29T11:24:21;0.95;;;0.95;;
6015;SDS011;3036;49.960;8.454;2023-07-29T11:26:48;0.90;;;0.90;;
6015;SDS011;3036;49.960;8.454;2023-07-29T11:29:17;0.90;;;0.90;;
6015;SDS011;3036;49.960;8.454;2023-07-29T11:31:44;0.70;;;0.70;;
6015;SDS011;3036;49.960;8.454;2023-07-29T11:34:11;0.70;;;0.70;;
6015;SDS011;3036;49.960;8.454;2023-07-29T11:36:43;0.80;;;0.80;;
6015;SDS011;3036;49.960;8.454;2023-07-29T11:39:12;0.80;;;0.80;;
6015;SDS011;3036;49.960;8.454;2023-07-29T11:41:39;0.60;;;0.60;;
6015;SDS011;3036;49.960;8.454;2023-07-29T11:44:09;0.80;;;0.80;;
6015;SDS011;3036;49.960;8.454;2023-07-29T11:46:37;1.05;;;0.80;;
6015;SDS011;3036;49.960;8.454;2023-07-29T11:49:06;0.90;;;0.90;;
6015;SDS011;3036;49.960;8.454;2023-07-29T11:51:33;0.75;;;0.60;;
6015;SDS011;3036;49.960;8.454;2023-07-29T11:54:00;0.90;;;0.90;;
6015;SDS011;3036;49.960;8.454;2023-07-29T11:56:27;0.73;;;0.73;;
6015;SDS011;3036;49.960;8.454;2023-07-29T11:58:56;1.45;;;1.45;;
6015;SDS011;3036;49.960;8.454;2023-07-29T12:01:23;1.10;;;1.10;;
6015;SDS011;3036;49.960;8.454;2023-07-29T12:03:51;1.92;;;1.30;;
6015;SDS011;3036;49.960;8.454;2023-07-29T12:06:19;1.38;;;1.38;;
6015;SDS011;3036;49.960;8.454;2023-07-29T12:08:46;1.20;;;1.20;;
6015;SDS011;3036;49.960;8.454;2023-07-29T12:11:13;0.93;;;0.93;;
6015;SDS011;3036;49.960;8.454;2023-07-29T12:13:41;1.30;;;1.30;;
6015;SDS011;3036;49.960;8.454;2023-07-29T12:16:08;0.80;;;0.80;;
6015;SDS011;3036;49.960;8.454;2023-07-29T12:18:35;0.63;;;0.63;;
6015;SDS011;3036;49.960;8.454;2023-07-29T12:21:04;1.02;;;0.80;;
6015;SDS011;3036;49.960;8.454;2023-07-29T12:23:31;0.60;;;0.60;;
6015;SDS011;3036;49.960;8.454;2023-07-29T12:25:59;0.90;;;0.90;;
6015;SDS011;3036;49.960;8.454;2023-07-29T12:28:30;1.08;;;0.80;;
6015;SDS011;3036;49.960;8.454;2023-07-29T12:30:57;0.60;;;0.60;;
6015;SDS011;3036;49.960;8.454;2023-07-29T12:33:33;0.70;;;0.70;;
6015;SDS011;3036;49.960;8.454;2023-07-29T12:36:04;0.70;;;0.70;;
6015;SDS011;3036;49.960;8.454;2023-07-29T12:38:31;0.80;;;0.80;;
6015;SDS011;3036;49.960;8.454;2023-07-29T12:40:58;5.55;;;1.00;;
6015;SDS011;3036;49.960;8.454;2023-07-29T12:43:25;1.85;;;0.90;;
6015;SDS011;3036;49.960;8.454;2023-07-29T12:45:52;3.30;;;0.63;;
6015;SDS011;3036;49.960;8.454;2023-07-29T12:48:19;0.70;;;0.70;;
6015;SDS011;3036;49.960;8.454;2023-07-29T12:50:46;0.70;;;0.70;;
6015;SDS011;3036;49.960;8.454;2023-07-29T12:53:15;0.90;;;0.90;;
6015;SDS011;3036;49.960;8.454;2023-07-29T12:55:43;0.60;;;0.60;;
6015;SDS011;3036;49.960;8.454;2023-07-29T12:58:10;0.80;;;0.80;;
6015;SDS011;3036;49.960;8.454;2023-07-29T13:00:37;0.85;;;0.85;;
6015;SDS011;3036;49.960;8.454;2023-07-29T13:03:04;0.77;;;0.77;;
6015;SDS011;3036;49.960;8.454;2023-07-29T13:05:31;0.70;;;0.70;;
6015;SDS011;3036;49.960;8.454;2023-07-29T13:07:58;0.80;;;0.80;;
6015;SDS011;3036;49.960;8.454;2023-07-29T13:10:27;1.10;;;1.10;;
6015;SDS011;3036;49.960;8.454;2023-07-29T13:12:54;0.85;;;0.85;;
6015;SDS011;3036;49.960;8.454;2023-07-29T13:15:21;0.95;;;0.95;;
6015;SDS011;3036;49.960;8.454;2023-07-29T13:17:48;0.70;;;0.70;;
6015;SDS011;3036;49.960;8.454;2023-07-29T13:20:21;1.55;;;0.98;;
6015;SDS011;3036;49.960;8.454;2023-07-29T13:22:48;0.70;;;0.70;;
6015;SDS011;3036;49.960;8.454;2023-07-29T13:25:15;0.65;;;0.65;;
6015;SDS011;3036;49.960;8.454;2023-07-29T13:27:44;0.80;;;0.80;;
6015;SDS011;3036;49.960;8.454;2023-07-29T13:30:11;0.80;;;0.80;;
6015;SDS011;3036;49.960;8.454;2023-07-29T13:32:38;0.90;;;0.90;;
6015;SDS011;3036;49.960;8.454;2023-07-29T13:35:05;0.70;;;0.70;;
6015;SDS011;3036;49.960;8.454;2023-07-29T13:37:32;0.95;;;0.95;;
6015;SDS011;3036;49.960;8.454;2023-07-29T13:39:59;0.77;;;0.77;;
6015;SDS011;3036;49.960;8.454;2023-07-29T13:42:26;1.10;;;1.10;;
6015;SDS011;3036;49.960;8.454;2023-07-29T13:44:55;1.10;;;1.10;;
6015;SDS011;3036;49.960;8.454;2023-07-29T13:47:22;1.17;;;1.17;;
6015;SDS011;3036;49.960;8.454;2023-07-29T13:49:49;1.55;;;1.55;;
6015;SDS011;3036;49.960;8.454;2023-07-29T13:52:16;1.00;;;1.00;;
6015;SDS011;3036;49.960;8.454;2023-07-29T13:54:43;0.95;;;0.95;;
6015;SDS011;3036;49.960;8.454;2023-07-29T13:57:10;1.00;;;1.00;;
6015;SDS011;3036;49.960;8.454;2023-07-29T13:59:37;1.13;;;1.13;;
6015;SDS011;3036;49.960;8.454;2023-07-29T14:02:05;1.40;;;1.15;;
6015;SDS011;3036;49.960;8.454;2023-07-29T14:04:33;1.10;;;1.10;;
6015;SDS011;3036;49.960;8.454;2023-07-29T14:07:00;1.08;;;1.02;;
6015;SDS011;3036;49.960;8.454;2023-07-29T14:09:27;1.27;;;0.88;;
6015;SDS011;3036;49.960;8.454;2023-07-29T14:11:54;0.75;;;0.75;;
6015;SDS011;3036;49.960;8.454;2023-07-29T14:14:21;0.98;;;0.77;;
6015;SDS011;3036;49.960;8.454;2023-07-29T14:16:48;0.80;;;0.80;;
6015;SDS011;3036;49.960;8.454;2023-07-29T14:19:17;1.30;;;0.70;;
6015;SDS011;3036;49.960;8.454;2023-07-29T14:21:44;1.40;;;1.20;;
6015;SDS011;3036;49.960;8.454;2023-07-29T14:24:11;0.90;;;0.90;;
6015;SDS011;3036;49.960;8.454;2023-07-29T14:26:38;1.00;;;1.00;;
6015;SDS011;3036;49.960;8.454;2023-07-29T14:29:05;0.90;;;0.90;;
6015;SDS011;3036;49.960;8.454;2023-07-29T14:31:32;1.77;;;0.90;;
6015;SDS011;3036;49.960;8.454;2023-07-29T14:33:59;0.90;;;0.90;;
6015;SDS011;3036;49.960;8.454;2023-07-29T14:36:27;1.67;;;1.00;;
6015;SDS011;3036;49.960;8.454;2023-07-29T14:38:54;0.80;;;0.80;;
6015;SDS011;3036;49.960;8.454;2023-07-29T14:41:21;1.10;;;1.10;;
6015;SDS011;3036;49.960;8.454;2023-07-29T14:43:48;0.82;;;0.70;;
6015;SDS011;3036;49.960;8.454;2023-07-29T14:46:15;0.75;;;0.70;;
6015;SDS011;3036;49.960;8.454;2023-07-29T14:48:42;0.82;;;0.80;;
6015;SDS011;3036;49.960;8.454;2023-07-29T14:51:10;0.70;;;0.70;;
6015;SDS011;3036;49.960;8.454;2023-07-29T14:53:38;0.77;;;0.77;;
6015;SDS011;3036;49.960;8.454;2023-07-29T14:56:06;0.77;;;0.77;;
6015;SDS011;3036;49.960;8.454;2023-07-29T14:58:33;0.82;;;0.82;;
6015;SDS011;3036;49.960;8.454;2023-07-29T15:01:00;1.40;;;0.80;;
6015;SDS011;3036;49.960;8.454;2023-07-29T15:03:27;0.68;;;0.68;;
6015;SDS011;3036;49.960;8.454;2023-07-29T15:05:57;1.35;;;0.90;;
6015;SDS011;3036;49.960;8.454;2023-07-29T15:08:25;0.82;;;0.82;;
6015;SDS011;3036;49.960;8.454;2023-07-29T15:10:54;1.10;;;1.08;;
6015;SDS011;3036;49.960;8.454;2023-07-29T15:13:21;0.90;;;0.90;;
6015;SDS011;3036;49.960;8.454;2023-07-29T15:15:48;0.90;;;0.90;;
6015;SDS011;3036;49.960;8.454;2023-07-29T15:18:16;2.00;;;1.90;;
6015;SDS011;3036;49.960;8.454;2023-07-29T15:20:43;1.48;;;1.48;;
6015;SDS011;3036;49.960;8.454;2023-07-29T15:23:10;0.80;;;0.80;;
6015;SDS011;3036;49.960;8.454;2023-07-29T15:25:37;0.70;;;0.70;;